Rushsylvania, OH (43347)

4:40 AM EDT on April 21, 2015 (GMT -0400)
rushslyvania | | Change Station
CLOSE
Current Station
Personal Weather Station
Location: Rushsylvania, OH
Elevation: 1079 ft
Nearby Weather Stations
Active Advisory: Wind Advisory

Elev 1079 ft 40.53 °N, 83.63 °W | Updated 6 minutes ago

Rain
Rain
41.5 °F
Feels Like 34 °F
N
13.5
Wind Variable Wind from WSW

Today
High -- | Low -- °F
--% Chance of Precip.
Yesterday
High -- | Low -- °F
Precip. -- in
6:47 AM 8:19 PM
Waxing Crescent, 9% visible
Pressure 29.73 in
Visibility 10.0 miles
Clouds Scattered Clouds 2400 ft
Scattered Clouds 3000 ft
Mostly Cloudy 9000 ft
Windchill 34 °F
Dew Point 36 °F
Humidity 82%
Rainfall 0.00 in
Snow Depth Not available.
UV 0 out of 12
Pollen 7.10 out of 12
Air Quality Not available.
Flu Activity Regional
METAR KEDJ 210830Z AUTO 20005KT 10SM SCT024 SCT030 BKN090 03/01 A2973 RMK AO1

More Conditions Fewer Conditions

Pressure 29.73 in
Visibility 10.0 miles
Clouds Scattered Clouds 2400 ft
Scattered Clouds 3000 ft
Mostly Cloudy 9000 ft
Windchill 34 °F
Dew Point 36 °F
Humidity 82%
Rainfall 0.00 in
Snow Depth Not available.
UV 0 out of 12
Pollen 7.10 out of 12
Air Quality Not available.
Flu Activity Regional
METAR KEDJ 210830Z AUTO 20005KT 10SM SCT024 SCT030 BKN090 03/01 A2973 RMK AO1

More Conditions Fewer Conditions

10-Day Weather Forecast

Almanac

Astronomy

Apr. 21, 2015 Rise Set
Actual Time
Civil Twilight
Nautical Twilight
Astronomical Twilight
Moon
Length of Visible Light
Length of Day
Tomorrow will be .
, % of the Moon is Illuminated

Today's Extremes

State Highs State Lows

Community

WunderPhotos

Upload Photos

1,815,329 photos uploaded!

WunderBlogs® & News

Nearby

Air Quality

  Air Quality AQ Index Pollutant
Not available.

Snow Depth

Station Depth Elevation

Earthquake Activity

City Distance Mag. Time & Date
Minimum magnitude displayed is 2.5.

Coastal Water Temperatures

Place Temperature

Stations

Nearby Weather Stations

Station Location Temp. Windchill Dew Point Humidity Wind Precip. Elev Updated Type
                   
Wind Advisory
Statement as of 3:13 AM EDT on April 21, 2015

... Wind Advisory remains in effect from 11 am this morning to
8 PM EDT this evening...

* winds... winds today will be out of west... sustained at 20 to 30
mph... with gusts as high as 40 to 50 mph.

* Impacts... scattered tree and power line damage is possible
along with some minor property damage in the highest gusts.
Winds this strong can make driving difficult... especially for
high profile vehicles.

Precautionary/preparedness actions...

A Wind Advisory is issued when sustained winds are forecast to be
31 to 39 mph or gusts will range between 46 and 57 mph. Winds of
these magnitudes may cause minor property damage without extra
precautions. Motorists in high profile vehicles should use
caution until the winds subside.